Airfield :
LOGIN :

Register | Disclaimer

   EN    FR    IT 

 










Legend :    VFR   Marginal VFR   IFR   Intensive IFR   Very Intensive IFR
Visi :
Ceiling :
>= 8 km
>= 3000ft
5 to 8 km
1000 to 3000 ft
1500m to 5 km
500 to 1000 ft
800 to 1500m
200 to 500 ft
< 800m
< 200 ft
Symbols :   Thunderstorms  Fog  Heavy snow  Heavy precipitations  Wind > 20 kt
SIGMETs :     Misc.  Thunderstorms  Icing  Turbulence  Mountain Waves  Volcanic Ashes






- Airport Elevation : 270 ft
- IATA code : OXF


EGTK - Oxford (Kidlington)

CURRENT METAR :
  • 291550Z 23014KT 9999 VCSH SCT015 BKN017 14/12 Q1009

EXPIRED METARs :
  • 291520Z 23016KT 9999 VCSH FEW013 BKN015 14/12 Q1009
  • 291450Z 24014KT 9999 VCSH SCT013 SCT015 BKN030 14/12 Q1009
  • 291420Z 23016KT 8000 -SHRA FEW009 BKN012 BKN015 14/12 Q1009
  • 291350Z 23015KT 9999 BKN012 BKN018 14/12 Q1009
  • 291320Z 23018KT 9999 SCT015 BKN017 14/12 Q1009

TAF TAF EGTK
Valid from the 29 at 15:00 until the 29 at 20:00 UTC


291401Z 2915/2920 22014KT 9999 SCT012 BKN020
TEMPO 2915/2920 23018G28KT 6000 -RADZ BKN012



MET'MAP, your aeronautical weather chart ! - Copyright ORBIFLY December 2007 - Disclaimer

ORBIFLY MET'MAP TEAM :

Programming & Development : Alexandra Zaïnal
Concept & original design : Baudouin d'Aumeries
Assistance for programming : Marc-Olivier Méhu
Technical & hardware support : Manuel Goepfert

Contact : metmap@orbifly.com




SOURCES & CREDITS :

   NOAA